createdAt,value
2022-10-04T00:02:05.556Z,29.13
2022-10-04T00:04:50.836Z,29.14
2022-10-04T00:07:26.860Z,29.13
2022-10-04T00:10:06.684Z,29.14
2022-10-04T00:12:41.899Z,29.08
2022-10-04T00:15:41.888Z,29.12
2022-10-04T00:18:15.062Z,29.11
2022-10-04T00:20:52.529Z,29.13
2022-10-04T00:23:44.531Z,29.12
2022-10-04T00:26:27.402Z,29.14
2022-10-04T00:28:58.413Z,29.10
2022-10-04T00:31:31.921Z,29.15
2022-10-04T00:34:11.496Z,29.11
2022-10-04T00:36:59.493Z,29.08
2022-10-04T00:39:41.657Z,29.10
2022-10-04T00:42:53.283Z,29.10
2022-10-04T00:45:36.383Z,29.12
2022-10-04T00:48:12.359Z,29.10
2022-10-04T00:50:53.466Z,29.12
2022-10-04T00:53:37.238Z,29.12
2022-10-04T00:56:12.706Z,29.10
2022-10-04T00:59:02.593Z,29.10
2022-10-04T01:01:38.187Z,29.12
2022-10-04T01:04:37.052Z,29.12
2022-10-04T01:07:10.114Z,29.13
2022-10-04T01:09:50.886Z,29.15
2022-10-04T01:12:48.598Z,29.15
2022-10-04T01:15:31.320Z,29.17
2022-10-04T01:18:18.784Z,29.17
2022-10-04T01:21:22.857Z,29.17
2022-10-04T01:24:02.600Z,29.19
2022-10-04T01:26:44.255Z,29.16
2022-10-04T01:29:19.399Z,29.17
2022-10-04T01:31:54.782Z,29.19
2022-10-04T01:34:30.950Z,29.19
2022-10-04T01:37:02.889Z,29.18
2022-10-04T01:39:34.258Z,29.21
2022-10-04T01:42:13.849Z,29.23
2022-10-04T01:44:49.435Z,29.23
2022-10-04T01:47:43.494Z,29.25
2022-10-04T01:50:25.606Z,29.25
2022-10-04T01:53:13.929Z,29.24
2022-10-04T01:55:50.847Z,29.24
2022-10-04T01:58:28.969Z,29.25
2022-10-04T02:00:59.740Z,29.26
2022-10-04T02:03:38.394Z,29.26
2022-10-04T02:06:11.854Z,29.26
2022-10-04T02:08:49.819Z,29.29
2022-10-04T02:11:24.667Z,29.29
2022-10-04T02:13:57.874Z,29.29
2022-10-04T02:16:29.763Z,29.29
2022-10-04T02:19:01.805Z,29.29
2022-10-04T02:21:33.591Z,29.31
2022-10-04T02:24:04.317Z,29.30
2022-10-04T02:26:34.948Z,29.31
2022-10-04T02:29:06.213Z,29.29
2022-10-04T02:31:56.219Z,29.32
2022-10-04T02:34:26.564Z,29.30
2022-10-04T02:36:56.704Z,29.31
2022-10-04T02:39:32.734Z,29.31
2022-10-04T02:42:28.330Z,29.31
2022-10-04T02:45:22.627Z,29.33
2022-10-04T02:48:01.492Z,29.32
2022-10-04T02:50:58.465Z,29.32
2022-10-04T02:54:12.872Z,29.34
2022-10-04T02:56:44.535Z,29.33
2022-10-04T03:02:04.885Z,29.34
2022-10-04T03:04:42.137Z,29.37
2022-10-04T03:07:12.448Z,29.36
2022-10-04T03:09:44.196Z,29.37
2022-10-04T03:12:16.477Z,29.40
2022-10-04T03:14:48.334Z,29.39
2022-10-04T03:17:20.314Z,29.42
2022-10-04T03:19:52.765Z,29.44
2022-10-04T03:22:26.055Z,29.44
2022-10-04T03:25:00.513Z,29.43
2022-10-04T03:27:37.558Z,29.43
2022-10-04T03:30:08.267Z,29.42
2022-10-04T03:32:39.201Z,29.42
2022-10-04T03:35:31.109Z,29.45
2022-10-04T03:38:05.846Z,29.44
2022-10-04T03:40:40.465Z,29.46
2022-10-04T03:43:14.800Z,29.45
2022-10-04T03:45:45.438Z,29.46
2022-10-04T03:48:20.199Z,29.44
2022-10-04T03:50:52.327Z,29.46
2022-10-04T03:53:45.883Z,29.47
2022-10-04T03:56:21.978Z,29.50
2022-10-04T03:58:53.857Z,29.51
2022-10-04T04:01:37.173Z,29.50
2022-10-04T04:04:10.837Z,29.50
2022-10-04T04:07:00.395Z,29.50
2022-10-04T04:09:49.194Z,29.53
2022-10-04T04:12:31.293Z,29.55
2022-10-04T04:15:02.271Z,29.49
2022-10-04T04:17:39.537Z,29.52
2022-10-04T04:20:20.223Z,29.54
2022-10-04T04:23:07.922Z,29.56
2022-10-04T04:25:41.680Z,29.55
2022-10-04T04:28:27.824Z,29.53
2022-10-04T04:31:28.622Z,29.56
2022-10-04T04:34:08.659Z,29.57
2022-10-04T04:36:43.915Z,29.58
2022-10-04T04:39:39.990Z,29.55
2022-10-04T04:42:19.338Z,29.54
2022-10-04T04:45:03.558Z,29.55
2022-10-04T04:47:49.850Z,29.56
2022-10-04T04:50:36.665Z,29.54
2022-10-04T04:53:29.228Z,29.55
2022-10-04T04:56:11.017Z,29.55
2022-10-04T04:58:48.607Z,29.54
2022-10-04T05:01:46.900Z,29.55
2022-10-04T05:04:21.652Z,29.58
2022-10-04T05:07:22.531Z,29.61
2022-10-04T05:09:52.835Z,29.62
2022-10-04T05:12:25.312Z,29.61
2022-10-04T05:14:56.943Z,29.61
2022-10-04T05:17:36.545Z,29.63
2022-10-04T05:20:08.507Z,29.63
2022-10-04T05:22:39.799Z,29.63
2022-10-04T05:25:17.792Z,29.63
2022-10-04T05:27:48.539Z,29.65
2022-10-04T05:30:30.956Z,29.63
2022-10-04T05:33:04.699Z,29.68
2022-10-04T05:35:46.310Z,29.66
2022-10-04T05:38:35.802Z,29.67
2022-10-04T05:41:49.941Z,29.66
2022-10-04T05:44:38.202Z,29.66
2022-10-04T05:47:10.717Z,29.67
2022-10-04T05:49:46.288Z,29.70
2022-10-04T05:52:38.392Z,29.69
2022-10-04T05:55:25.349Z,29.72
2022-10-04T05:58:23.458Z,29.73
2022-10-04T06:01:21.263Z,29.72
2022-10-04T06:04:00.640Z,29.70
2022-10-04T06:06:52.062Z,29.73
2022-10-04T06:09:37.854Z,29.74
2022-10-04T06:12:20.725Z,29.72
2022-10-04T06:15:23.271Z,29.73
2022-10-04T06:17:53.774Z,29.71
2022-10-04T06:20:26.776Z,29.73
2022-10-04T06:23:05.697Z,29.73
2022-10-04T06:25:50.017Z,29.74
2022-10-04T06:28:32.031Z,29.76
2022-10-04T06:31:29.081Z,29.77
2022-10-04T06:34:43.193Z,29.81
2022-10-04T06:37:42.371Z,29.80
2022-10-04T06:40:38.918Z,29.81
2022-10-04T06:43:47.201Z,29.82
2022-10-04T06:46:57.136Z,29.81
2022-10-04T06:49:52.282Z,29.82
2022-10-04T06:52:50.134Z,29.83
2022-10-04T06:55:33.248Z,29.85
2022-10-04T06:58:52.226Z,29.88
2022-10-04T07:01:34.573Z,29.88
2022-10-04T07:04:34.850Z,29.87
2022-10-04T07:07:27.281Z,29.90
2022-10-04T07:10:09.115Z,29.92
2022-10-04T07:12:45.554Z,29.95
2022-10-04T07:15:51.280Z,29.96
2022-10-04T07:18:59.982Z,29.98
2022-10-04T07:21:46.933Z,29.99
2022-10-04T07:24:27.767Z,29.99
2022-10-04T07:26:58.693Z,30.02
2022-10-04T07:29:41.206Z,30.01
2022-10-04T07:32:24.565Z,30.03
2022-10-04T07:35:18.960Z,30.03
2022-10-04T07:41:06.614Z,30.02
2022-10-04T07:44:02.698Z,30.03
2022-10-04T07:46:45.568Z,30.03
2022-10-04T07:49:22.073Z,30.02
2022-10-04T07:52:22.546Z,30.05
2022-10-04T07:55:34.965Z,30.07
2022-10-04T07:58:17.122Z,30.06
2022-10-04T08:00:56.520Z,30.06
2022-10-04T08:03:48.711Z,30.08
2022-10-04T08:06:24.634Z,30.06
2022-10-04T08:09:06.206Z,30.07
2022-10-04T08:11:46.316Z,30.06
2022-10-04T08:14:43.830Z,30.07
2022-10-04T08:17:19.608Z,30.06
2022-10-04T08:26:05.577Z,30.04
2022-10-04T08:29:15.069Z,30.04
2022-10-04T08:32:19.020Z,30.04
2022-10-04T08:35:00.747Z,30.05
2022-10-04T08:37:38.458Z,30.05
2022-10-04T08:40:36.612Z,30.02
2022-10-04T08:50:09.474Z,30.04
2022-10-04T08:52:54.568Z,30.03
2022-10-04T08:56:01.137Z,30.05
2022-10-04T08:58:40.471Z,30.06
2022-10-04T09:04:41.625Z,30.06
2022-10-04T09:07:52.095Z,30.05
2022-10-04T09:10:42.479Z,30.03
2022-10-04T09:13:57.532Z,30.02
2022-10-04T09:16:38.229Z,30.01
2022-10-04T09:19:35.811Z,30.03
2022-10-04T09:22:21.290Z,30.02
2022-10-04T09:25:19.144Z,30.04
2022-10-04T09:28:11.934Z,30.02
2022-10-04T09:31:16.036Z,30.02
2022-10-04T09:34:08.224Z,30.02
2022-10-04T09:40:08.756Z,30.04
2022-10-04T09:43:10.128Z,30.02
2022-10-04T09:46:11.677Z,30.03
2022-10-04T09:49:02.714Z,30.03
2022-10-04T09:52:11.095Z,30.02
2022-10-04T09:55:18.060Z,30.02
2022-10-04T09:58:06.775Z,30.01
2022-10-04T10:00:44.320Z,30.01
2022-10-04T10:03:40.952Z,30.02
2022-10-04T10:06:32.422Z,30.03
2022-10-04T10:09:46.792Z,30.01
2022-10-04T10:12:46.077Z,30.04
2022-10-04T10:15:26.950Z,30.03
2022-10-04T10:18:17.267Z,30.02
2022-10-04T10:21:08.175Z,30.02
2022-10-04T10:23:58.757Z,30.02
2022-10-04T10:26:50.394Z,30.01
2022-10-04T10:32:11.458Z,29.99
2022-10-04T10:35:13.696Z,29.99
2022-10-04T10:38:04.266Z,29.98
2022-10-04T10:40:55.184Z,29.99
2022-10-04T10:46:54.666Z,30.00
2022-10-04T10:50:04.842Z,30.00
2022-10-04T10:56:16.253Z,30.00
2022-10-04T10:59:11.609Z,30.02
2022-10-04T11:02:17.092Z,29.98
2022-10-04T11:05:14.816Z,30.01
2022-10-04T11:08:47.540Z,30.02
2022-10-04T11:11:44.467Z,30.02
2022-10-04T11:14:34.684Z,30.01
2022-10-04T11:17:36.523Z,30.01
2022-10-04T11:20:19.607Z,30.00
2022-10-04T11:23:11.287Z,30.00
2022-10-04T11:26:25.176Z,30.00
2022-10-04T11:29:01.771Z,30.00
2022-10-04T11:32:07.885Z,30.01
2022-10-04T11:34:50.573Z,30.00
2022-10-04T11:37:33.808Z,30.04
2022-10-04T11:40:38.208Z,30.02
2022-10-04T11:43:34.576Z,30.02
2022-10-04T11:46:27.229Z,30.02
2022-10-04T11:49:15.687Z,30.02
2022-10-04T11:52:02.066Z,30.04
2022-10-04T11:54:43.952Z,30.03
2022-10-04T11:57:26.963Z,30.04
2022-10-04T12:00:02.825Z,30.02
2022-10-04T12:03:27.593Z,30.02
2022-10-04T12:06:19.850Z,30.01
2022-10-04T12:09:14.191Z,30.02
2022-10-04T12:12:18.172Z,30.03
2022-10-04T12:15:11.025Z,30.04
2022-10-04T12:18:02.585Z,30.02
2022-10-04T12:20:43.195Z,30.01
2022-10-04T12:23:46.447Z,30.01
2022-10-04T12:26:34.462Z,30.00
2022-10-04T12:29:31.542Z,30.01
2022-10-04T12:32:12.823Z,30.00
2022-10-04T12:48:00.219Z,29.85
2022-10-04T12:54:22.364Z,29.78
2022-10-04T12:57:25.757Z,29.77
2022-10-04T13:00:23.160Z,29.78
2022-10-04T13:03:05.011Z,29.80
2022-10-04T13:06:10.544Z,29.88
2022-10-04T13:09:02.679Z,29.93
2022-10-04T13:11:56.432Z,29.98
2022-10-04T13:14:46.938Z,29.98
2022-10-04T13:20:31.831Z,30.01
2022-10-04T13:23:11.136Z,30.06
2022-10-04T13:25:50.675Z,30.05
2022-10-04T13:31:38.348Z,29.97
2022-10-04T13:34:28.856Z,30.10
2022-10-04T13:37:29.819Z,30.07
2022-10-04T13:46:13.933Z,30.12
2022-10-04T13:49:13.529Z,30.01
2022-10-04T13:52:15.401Z,30.06
2022-10-04T13:55:22.417Z,29.99
2022-10-04T13:58:22.951Z,29.95
2022-10-04T14:04:03.252Z,29.99
2022-10-04T14:06:52.298Z,29.97
2022-10-04T14:10:21.752Z,29.96
2022-10-04T14:12:52.364Z,29.94
2022-10-04T14:15:34.086Z,29.98
2022-10-04T14:18:26.926Z,30.02
2022-10-04T14:21:38.053Z,30.00
2022-10-04T14:24:50.959Z,30.09
2022-10-04T14:27:52.510Z,30.07
2022-10-04T14:30:27.588Z,30.05
2022-10-04T14:33:07.004Z,30.05
2022-10-04T14:35:49.117Z,30.10
2022-10-04T14:45:13.885Z,30.03
2022-10-04T14:54:10.277Z,30.06
2022-10-04T14:57:11.041Z,30.01
2022-10-04T15:03:41.128Z,30.05
2022-10-04T15:06:16.250Z,30.04
2022-10-04T15:09:05.491Z,30.04
2022-10-04T15:15:05.355Z,30.06
2022-10-04T15:17:40.265Z,30.03
2022-10-04T15:20:22.780Z,30.07
2022-10-04T15:22:57.858Z,30.06
2022-10-04T15:25:56.066Z,29.98
2022-10-04T15:29:08.042Z,30.02
2022-10-04T15:38:10.447Z,29.94
2022-10-04T15:41:18.209Z,29.96
2022-10-04T15:44:14.819Z,29.98
2022-10-04T15:46:53.952Z,29.99
2022-10-04T15:49:54.864Z,30.01
2022-10-04T15:52:43.470Z,30.00
2022-10-04T15:58:28.313Z,30.00
2022-10-04T16:01:17.024Z,29.97
2022-10-04T16:04:24.657Z,29.98
2022-10-04T16:07:10.520Z,29.97
2022-10-04T16:09:52.861Z,29.96
2022-10-04T16:12:26.531Z,29.96
2022-10-04T16:15:23.548Z,30.01
2022-10-04T16:21:19.372Z,30.01
2022-10-04T16:23:50.876Z,30.00
2022-10-04T16:29:38.149Z,30.02
2022-10-04T16:32:41.701Z,30.02
2022-10-04T16:36:00.946Z,30.00
2022-10-04T16:41:41.006Z,30.01
2022-10-04T16:44:35.721Z,30.02
2022-10-04T16:47:23.521Z,30.00
2022-10-04T16:49:58.176Z,30.00
2022-10-04T16:52:29.596Z,29.98
2022-10-04T16:55:03.834Z,30.00
2022-10-04T16:57:34.873Z,29.99
2022-10-04T17:00:41.337Z,29.99
2022-10-04T17:03:38.763Z,29.99
2022-10-04T17:09:40.220Z,29.97
2022-10-04T17:12:37.462Z,29.95
2022-10-04T17:15:28.952Z,29.95
2022-10-04T17:18:14.882Z,29.95
2022-10-04T17:20:45.548Z,29.95
2022-10-04T17:29:49.443Z,29.90
2022-10-04T17:32:29.465Z,29.89
2022-10-04T17:35:20.470Z,29.88
2022-10-04T17:37:57.098Z,29.91
2022-10-04T17:40:48.942Z,29.88
2022-10-04T17:44:06.517Z,29.89
2022-10-04T17:46:52.696Z,29.90
2022-10-04T17:49:51.643Z,29.88
2022-10-04T17:52:52.608Z,29.90
2022-10-04T17:55:30.802Z,29.88
2022-10-04T17:58:16.460Z,29.89
2022-10-04T18:04:00.671Z,29.87
2022-10-04T18:06:40.382Z,29.89
2022-10-04T18:09:37.844Z,29.87
2022-10-04T18:15:05.849Z,29.87
2022-10-04T18:17:47.508Z,29.87
2022-10-04T18:21:04.478Z,29.86
2022-10-04T18:23:41.628Z,29.85
2022-10-04T18:29:15.463Z,29.86
2022-10-04T18:34:33.927Z,29.85
2022-10-04T18:37:25.098Z,29.85
2022-10-04T18:39:55.950Z,29.87
2022-10-04T18:42:37.452Z,29.86
2022-10-04T18:45:28.135Z,29.88
2022-10-04T18:48:01.183Z,29.87
2022-10-04T18:50:51.745Z,29.88
2022-10-04T18:53:25.026Z,29.85
2022-10-04T18:55:55.179Z,29.86
2022-10-04T18:58:54.546Z,29.85
2022-10-04T19:02:07.427Z,29.83
2022-10-04T19:04:57.583Z,29.84
2022-10-04T19:07:41.508Z,29.83
2022-10-04T19:10:19.527Z,29.82
2022-10-04T19:12:59.006Z,29.83
2022-10-04T19:15:52.377Z,29.81
2022-10-04T19:18:47.629Z,29.81
2022-10-04T19:21:27.439Z,29.80
2022-10-04T19:24:16.154Z,29.81
2022-10-04T19:26:51.880Z,29.81
2022-10-04T19:29:52.502Z,29.82
2022-10-04T19:35:52.060Z,29.83
2022-10-04T19:44:36.028Z,29.83
2022-10-04T19:50:25.933Z,29.78
2022-10-04T19:53:09.692Z,29.80
2022-10-04T19:55:45.745Z,29.80
2022-10-04T19:58:26.163Z,29.80
2022-10-04T20:00:56.597Z,29.82
2022-10-04T20:03:27.689Z,29.81
2022-10-04T20:05:59.613Z,29.78
2022-10-04T20:11:51.626Z,29.79
2022-10-04T20:14:25.408Z,29.78
2022-10-04T20:16:55.876Z,29.75
2022-10-04T20:19:32.673Z,29.76
2022-10-04T20:22:29.836Z,29.78
2022-10-04T20:25:01.903Z,29.80
2022-10-04T20:27:33.705Z,29.78
2022-10-04T20:30:07.771Z,29.81
2022-10-04T20:32:40.953Z,29.78
2022-10-04T20:35:35.811Z,29.81
2022-10-04T20:38:30.527Z,29.75
2022-10-04T20:44:03.637Z,29.77
2022-10-04T20:46:40.319Z,29.76
2022-10-04T20:52:06.550Z,29.77
2022-10-04T20:54:37.470Z,29.78
2022-10-04T20:57:08.162Z,29.78
2022-10-04T20:59:39.346Z,29.77
2022-10-04T21:02:14.129Z,29.78
2022-10-04T21:04:46.837Z,29.79
2022-10-04T21:07:28.823Z,29.77
2022-10-04T21:10:17.985Z,29.77
2022-10-04T21:15:34.703Z,29.77
2022-10-04T21:18:08.203Z,29.76
2022-10-04T21:20:45.591Z,29.76
2022-10-04T21:23:37.594Z,29.76
2022-10-04T21:26:25.332Z,29.75
2022-10-04T21:28:59.690Z,29.76
2022-10-04T21:31:30.154Z,29.76
2022-10-04T21:36:46.640Z,29.76
2022-10-04T21:39:17.569Z,29.75
2022-10-04T21:41:47.938Z,29.75
2022-10-04T21:47:03.601Z,29.74
2022-10-04T21:49:33.630Z,29.75
2022-10-04T21:52:04.896Z,29.73
2022-10-04T21:57:21.706Z,29.73
2022-10-04T21:59:52.285Z,29.73
2022-10-04T22:02:22.879Z,29.71
2022-10-04T22:04:53.587Z,29.71
2022-10-04T22:07:23.857Z,29.72
2022-10-04T22:09:54.194Z,29.71
2022-10-04T22:12:24.321Z,29.69
2022-10-04T22:14:54.319Z,29.69
2022-10-04T22:17:24.580Z,29.70
2022-10-04T22:19:55.155Z,29.69
2022-10-04T22:22:25.355Z,29.73
2022-10-04T22:25:14.295Z,29.70
2022-10-04T22:27:44.615Z,29.71
2022-10-04T22:30:26.802Z,29.73
2022-10-04T22:33:04.088Z,29.76
2022-10-04T22:35:36.771Z,29.75
2022-10-04T22:38:11.540Z,29.75
2022-10-04T22:40:41.690Z,29.76
2022-10-04T22:43:17.252Z,29.76
2022-10-04T22:45:48.188Z,29.76
2022-10-04T22:53:50.553Z,29.74
2022-10-04T22:56:20.723Z,29.72
2022-10-04T22:58:50.835Z,29.70
2022-10-04T23:01:21.416Z,29.69
2022-10-04T23:03:52.450Z,29.69
2022-10-04T23:06:22.906Z,29.68
2022-10-04T23:08:53.619Z,29.68
2022-10-04T23:11:24.306Z,29.66
2022-10-04T23:13:54.505Z,29.70
2022-10-04T23:19:22.921Z,29.73
2022-10-04T23:24:39.137Z,29.70
2022-10-04T23:27:19.420Z,29.69
2022-10-04T23:29:51.598Z,29.68
2022-10-04T23:32:21.989Z,29.69
2022-10-04T23:37:38.521Z,29.67
2022-10-04T23:43:00.092Z,29.65
2022-10-04T23:45:30.360Z,29.67
2022-10-04T23:50:51.421Z,29.68
2022-10-04T23:53:33.817Z,29.67
2022-10-04T23:56:07.935Z,29.65
2022-10-04T23:58:42.933Z,29.66
